sensor_id;sensor_type;location;lat;lon;timestamp;pressure;altitude;pressure_sealevel;temperature;humidity
69245;BME280;56357;52.304;4.870;2023-02-10T00:01:13;103747.69;;;15.90;nan
69245;BME280;56357;52.304;4.870;2023-02-10T00:03:39;103751.94;;;15.86;nan
69245;BME280;56357;52.304;4.870;2023-02-10T00:06:07;103748.47;;;15.84;nan
69245;BME280;56357;52.304;4.870;2023-02-10T00:08:35;103750.38;;;15.84;nan
69245;BME280;56357;52.304;4.870;2023-02-10T00:11:07;103758.09;;;15.82;nan
69245;BME280;56357;52.304;4.870;2023-02-10T00:13:36;103754.94;;;15.85;nan
69245;BME280;56357;52.304;4.870;2023-02-10T00:16:04;103750.19;;;15.85;nan
69245;BME280;56357;52.304;4.870;2023-02-10T00:18:32;103754.25;;;15.83;nan
69245;BME280;56357;52.304;4.870;2023-02-10T00:21:10;103740.00;;;15.78;nan
69245;BME280;56357;52.304;4.870;2023-02-10T00:23:38;103744.53;;;15.79;nan
69245;BME280;56357;52.304;4.870;2023-02-10T00:26:05;103746.25;;;15.80;nan
69245;BME280;56357;52.304;4.870;2023-02-10T00:28:33;103740.59;;;15.73;nan
69245;BME280;56357;52.304;4.870;2023-02-10T00:31:11;103742.50;;;15.73;nan
69245;BME280;56357;52.304;4.870;2023-02-10T00:33:38;103745.09;;;15.74;nan
69245;BME280;56357;52.304;4.870;2023-02-10T00:36:09;103739.91;;;15.71;nan
69245;BME280;56357;52.304;4.870;2023-02-10T00:38:36;103741.16;;;15.69;nan
69245;BME280;56357;52.304;4.870;2023-02-10T00:41:04;103739.91;;;15.71;nan
69245;BME280;56357;52.304;4.870;2023-02-10T00:43:31;103743.28;;;15.67;nan
69245;BME280;56357;52.304;4.870;2023-02-10T00:45:58;103748.00;;;15.66;nan
69245;BME280;56357;52.304;4.870;2023-02-10T00:48:24;103751.66;;;15.67;nan
69245;BME280;56357;52.304;4.870;2023-02-10T00:50:50;103751.28;;;15.70;nan
69245;BME280;56357;52.304;4.870;2023-02-10T00:53:17;103743.97;;;15.69;nan
69245;BME280;56357;52.304;4.870;2023-02-10T00:55:43;103746.09;;;15.67;nan
69245;BME280;56357;52.304;4.870;2023-02-10T00:58:10;103754.34;;;15.60;nan
69245;BME280;56357;52.304;4.870;2023-02-10T01:00:36;103755.63;;;15.57;nan
69245;BME280;56357;52.304;4.870;2023-02-10T01:03:03;103744.63;;;15.56;nan
69245;BME280;56357;52.304;4.870;2023-02-10T01:05:29;103751.28;;;15.55;nan
69245;BME280;56357;52.304;4.870;2023-02-10T01:07:56;103749.38;;;15.55;nan
69245;BME280;56357;52.304;4.870;2023-02-10T01:10:22;103756.59;;;15.50;nan
69245;BME280;56357;52.304;4.870;2023-02-10T01:12:49;103752.16;;;15.55;nan
69245;BME280;56357;52.304;4.870;2023-02-10T01:15:15;103766.34;;;15.54;nan
69245;BME280;56357;52.304;4.870;2023-02-10T01:17:42;103762.88;;;15.52;nan
69245;BME280;56357;52.304;4.870;2023-02-10T01:20:08;103766.91;;;15.49;nan
69245;BME280;56357;52.304;4.870;2023-02-10T01:22:35;103766.03;;;15.49;nan
69245;BME280;56357;52.304;4.870;2023-02-10T01:25:02;103774.03;;;15.52;nan
69245;BME280;56357;52.304;4.870;2023-02-10T01:27:29;103768.81;;;15.49;nan
69245;BME280;56357;52.304;4.870;2023-02-10T01:29:55;103771.63;;;15.49;nan
69245;BME280;56357;52.304;4.870;2023-02-10T01:32:21;103772.28;;;15.51;nan
69245;BME280;56357;52.304;4.870;2023-02-10T01:34:48;103777.00;;;15.50;nan
69245;BME280;56357;52.304;4.870;2023-02-10T01:37:14;103779.31;;;15.47;nan
69245;BME280;56357;52.304;4.870;2023-02-10T01:39:41;103782.13;;;15.47;nan
69245;BME280;56357;52.304;4.870;2023-02-10T01:42:11;103775.00;;;15.44;nan
69245;BME280;56357;52.304;4.870;2023-02-10T01:47:06;103784.03;;;15.46;nan
69245;BME280;56357;52.304;4.870;2023-02-10T01:49:37;103787.41;;;15.42;nan
69245;BME280;56357;52.304;4.870;2023-02-10T01:52:08;103776.94;;;15.44;nan
69245;BME280;56357;52.304;4.870;2023-02-10T01:54:59;103782.31;;;15.45;nan
69245;BME280;56357;52.304;4.870;2023-02-10T01:57:28;103773.25;;;15.43;nan
69245;BME280;56357;52.304;4.870;2023-02-10T01:59:55;103778.34;;;15.40;nan
69245;BME280;56357;52.304;4.870;2023-02-10T02:02:22;103779.22;;;15.40;nan
69245;BME280;56357;52.304;4.870;2023-02-10T02:04:51;103764.06;;;15.35;nan
69245;BME280;56357;52.304;4.870;2023-02-10T02:07:22;103774.88;;;15.38;nan
69245;BME280;56357;52.304;4.870;2023-02-10T02:09:51;103766.84;;;15.35;nan
69245;BME280;56357;52.304;4.870;2023-02-10T02:15:36;103768.31;;;15.31;nan
69245;BME280;56357;52.304;4.870;2023-02-10T02:18:13;103773.31;;;15.35;nan
69245;BME280;56357;52.304;4.870;2023-02-10T02:26:43;103775.50;;;15.25;nan
69245;BME280;56357;52.304;4.870;2023-02-10T02:32:16;103781.00;;;15.19;nan
69245;BME280;56357;52.304;4.870;2023-02-10T02:35:05;103790.44;;;15.18;nan
69245;BME280;56357;52.304;4.870;2023-02-10T02:37:39;103801.59;;;15.18;nan
69245;BME280;56357;52.304;4.870;2023-02-10T02:40:08;103796.41;;;15.15;nan
69245;BME280;56357;52.304;4.870;2023-02-10T02:42:35;103799.88;;;15.17;nan
69245;BME280;56357;52.304;4.870;2023-02-10T02:45:05;103789.06;;;15.14;nan
69245;BME280;56357;52.304;4.870;2023-02-10T02:47:54;103791.03;;;15.13;nan
69245;BME280;56357;52.304;4.870;2023-02-10T02:58:20;103796.13;;;15.10;nan
69245;BME280;56357;52.304;4.870;2023-02-10T03:00:51;103797.28;;;15.15;nan
69245;BME280;56357;52.304;4.870;2023-02-10T03:03:20;103800.34;;;15.20;nan
69245;BME280;56357;52.304;4.870;2023-02-10T03:05:47;103797.75;;;15.19;nan
69245;BME280;56357;52.304;4.870;2023-02-10T03:08:13;103792.19;;;15.19;nan
69245;BME280;56357;52.304;4.870;2023-02-10T03:10:40;103781.97;;;15.26;nan
69245;BME280;56357;52.304;4.870;2023-02-10T03:13:06;103793.13;;;15.26;nan
69245;BME280;56357;52.304;4.870;2023-02-10T03:15:33;103788.72;;;15.17;nan
69245;BME280;56357;52.304;4.870;2023-02-10T03:17:59;103796.53;;;15.21;nan
69245;BME280;56357;52.304;4.870;2023-02-10T03:20:26;103786.59;;;15.19;nan
69245;BME280;56357;52.304;4.870;2023-02-10T03:22:52;103787.94;;;15.23;nan
69245;BME280;56357;52.304;4.870;2023-02-10T03:25:19;103779.50;;;15.31;nan
69245;BME280;56357;52.304;4.870;2023-02-10T03:27:45;103791.34;;;15.33;nan
69245;BME280;56357;52.304;4.870;2023-02-10T03:30:12;103793.34;;;15.24;nan
69245;BME280;56357;52.304;4.870;2023-02-10T03:32:38;103796.25;;;15.31;nan
69245;BME280;56357;52.304;4.870;2023-02-10T03:35:05;103796.41;;;15.29;nan
69245;BME280;56357;52.304;4.870;2023-02-10T03:37:32;103798.38;;;15.29;nan
69245;BME280;56357;52.304;4.870;2023-02-10T03:39:58;103790.53;;;15.24;nan
69245;BME280;56357;52.304;4.870;2023-02-10T03:42:25;103789.31;;;15.27;nan
69245;BME280;56357;52.304;4.870;2023-02-10T03:44:51;103795.28;;;15.38;nan
69245;BME280;56357;52.304;4.870;2023-02-10T03:47:18;103791.97;;;15.35;nan
69245;BME280;56357;52.304;4.870;2023-02-10T03:49:44;103793.81;;;15.28;nan
69245;BME280;56357;52.304;4.870;2023-02-10T03:52:10;103793.34;;;15.24;nan
69245;BME280;56357;52.304;4.870;2023-02-10T03:54:37;103789.97;;;15.29;nan
69245;BME280;56357;52.304;4.870;2023-02-10T03:57:03;103789.59;;;15.32;nan
69245;BME280;56357;52.304;4.870;2023-02-10T03:59:31;103787.00;;;15.30;nan
69245;BME280;56357;52.304;4.870;2023-02-10T04:01:58;103800.56;;;15.33;nan
69245;BME280;56357;52.304;4.870;2023-02-10T04:04:26;103800.34;;;15.35;nan
69245;BME280;56357;52.304;4.870;2023-02-10T04:06:52;103794.78;;;15.35;nan
69245;BME280;56357;52.304;4.870;2023-02-10T04:09:19;103790.06;;;15.35;nan
69245;BME280;56357;52.304;4.870;2023-02-10T04:11:45;103803.47;;;15.40;nan
69245;BME280;56357;52.304;4.870;2023-02-10T04:14:12;103806.41;;;15.24;nan
69245;BME280;56357;52.304;4.870;2023-02-10T04:16:39;103801.44;;;15.34;nan
69245;BME280;56357;52.304;4.870;2023-02-10T04:19:05;103806.34;;;15.17;nan
69245;BME280;56357;52.304;4.870;2023-02-10T04:21:32;103798.91;;;15.24;nan
69245;BME280;56357;52.304;4.870;2023-02-10T04:23:58;103800.66;;;15.40;nan
69245;BME280;56357;52.304;4.870;2023-02-10T04:26:25;103797.22;;;15.38;nan
69245;BME280;56357;52.304;4.870;2023-02-10T04:28:51;103800.63;;;15.48;nan
69245;BME280;56357;52.304;4.870;2023-02-10T04:31:18;103787.59;;;15.40;nan
69245;BME280;56357;52.304;4.870;2023-02-10T04:33:44;103793.88;;;15.42;nan
69245;BME280;56357;52.304;4.870;2023-02-10T04:36:11;103799.59;;;15.26;nan
69245;BME280;56357;52.304;4.870;2023-02-10T04:38:37;103795.19;;;15.32;nan
69245;BME280;56357;52.304;4.870;2023-02-10T04:41:04;103784.91;;;15.47;nan
69245;BME280;56357;52.304;4.870;2023-02-10T04:43:32;103787.88;;;15.31;nan
69245;BME280;56357;52.304;4.870;2023-02-10T04:45:58;103789.13;;;15.43;nan
69245;BME280;56357;52.304;4.870;2023-02-10T04:48:25;103791.78;;;15.22;nan
69245;BME280;56357;52.304;4.870;2023-02-10T04:50:51;103796.56;;;15.50;nan
69245;BME280;56357;52.304;4.870;2023-02-10T04:53:19;103796.06;;;15.47;nan
69245;BME280;56357;52.304;4.870;2023-02-10T04:55:45;103791.75;;;15.44;nan
69245;BME280;56357;52.304;4.870;2023-02-10T04:58:12;103793.00;;;15.42;nan
69245;BME280;56357;52.304;4.870;2023-02-10T05:00:38;103789.19;;;15.35;nan
69245;BME280;56357;52.304;4.870;2023-02-10T05:03:05;103781.41;;;15.30;nan
69245;BME280;56357;52.304;4.870;2023-02-10T05:05:31;103784.75;;;15.26;nan
69245;BME280;56357;52.304;4.870;2023-02-10T05:07:58;103784.47;;;15.21;nan
69245;BME280;56357;52.304;4.870;2023-02-10T05:10:24;103779.22;;;15.40;nan
69245;BME280;56357;52.304;4.870;2023-02-10T05:12:51;103791.63;;;15.52;nan
69245;BME280;56357;52.304;4.870;2023-02-10T05:15:17;103798.38;;;15.58;nan
69245;BME280;56357;52.304;4.870;2023-02-10T05:17:43;103787.91;;;15.45;nan
69245;BME280;56357;52.304;4.870;2023-02-10T05:20:10;103789.50;;;15.40;nan
69245;BME280;56357;52.304;4.870;2023-02-10T05:22:37;103790.38;;;15.40;nan
69245;BME280;56357;52.304;4.870;2023-02-10T05:25:05;103779.03;;;15.42;nan
69245;BME280;56357;52.304;4.870;2023-02-10T05:27:31;103779.78;;;15.50;nan
69245;BME280;56357;52.304;4.870;2023-02-10T05:29:58;103774.81;;;15.46;nan
69245;BME280;56357;52.304;4.870;2023-02-10T05:32:24;103775.84;;;15.45;nan
69245;BME280;56357;52.304;4.870;2023-02-10T05:34:51;103767.78;;;15.50;nan
69245;BME280;56357;52.304;4.870;2023-02-10T05:37:17;103771.63;;;15.49;nan
69245;BME280;56357;52.304;4.870;2023-02-10T05:39:44;103778.06;;;15.49;nan
69245;BME280;56357;52.304;4.870;2023-02-10T05:42:10;103778.75;;;15.51;nan
69245;BME280;56357;52.304;4.870;2023-02-10T05:44:37;103779.56;;;15.37;nan
69245;BME280;56357;52.304;4.870;2023-02-10T05:47:03;103782.78;;;15.49;nan
69245;BME280;56357;52.304;4.870;2023-02-10T05:49:30;103782.19;;;15.68;nan
69245;BME280;56357;52.304;4.870;2023-02-10T05:51:57;103782.59;;;15.65;nan
69245;BME280;56357;52.304;4.870;2023-02-10T05:54:24;103786.81;;;15.46;nan
69245;BME280;56357;52.304;4.870;2023-02-10T05:56:50;103787.50;;;15.63;nan
69245;BME280;56357;52.304;4.870;2023-02-10T05:59:17;103789.22;;;15.64;nan
69245;BME280;56357;52.304;4.870;2023-02-10T06:01:43;103791.19;;;15.64;nan
69245;BME280;56357;52.304;4.870;2023-02-10T06:04:10;103798.66;;;15.92;nan
69245;BME280;56357;52.304;4.870;2023-02-10T06:06:37;103790.19;;;15.86;nan
69245;BME280;56357;52.304;4.870;2023-02-10T06:09:04;103793.38;;;15.68;nan
69245;BME280;56357;52.304;4.870;2023-02-10T06:11:31;103807.94;;;15.64;nan
69245;BME280;56357;52.304;4.870;2023-02-10T06:13:57;103803.31;;;15.71;nan
69245;BME280;56357;52.304;4.870;2023-02-10T06:16:24;103799.81;;;15.83;nan
69245;BME280;56357;52.304;4.870;2023-02-10T06:18:50;103795.59;;;15.73;nan
69245;BME280;56357;52.304;4.870;2023-02-10T06:21:17;103805.72;;;15.59;nan
69245;BME280;56357;52.304;4.870;2023-02-10T06:23:44;103808.50;;;15.74;nan
69245;BME280;56357;52.304;4.870;2023-02-10T06:26:10;103810.63;;;15.72;nan
69245;BME280;56357;52.304;4.870;2023-02-10T06:28:37;103814.38;;;15.64;nan
69245;BME280;56357;52.304;4.870;2023-02-10T06:31:03;103815.06;;;15.81;nan
69245;BME280;56357;52.304;4.870;2023-02-10T06:33:30;103815.06;;;15.81;nan
69245;BME280;56357;52.304;4.870;2023-02-10T06:35:57;103824.97;;;15.83;nan
69245;BME280;56357;52.304;4.870;2023-02-10T06:38:24;103813.88;;;15.90;nan
69245;BME280;56357;52.304;4.870;2023-02-10T06:40:50;103812.06;;;15.82;nan
69245;BME280;56357;52.304;4.870;2023-02-10T06:43:17;103815.13;;;15.87;nan
69245;BME280;56357;52.304;4.870;2023-02-10T06:45:43;103814.47;;;16.00;nan
69245;BME280;56357;52.304;4.870;2023-02-10T06:48:09;103811.06;;;16.04;nan
69245;BME280;56357;52.304;4.870;2023-02-10T06:50:36;103806.94;;;15.86;nan
69245;BME280;56357;52.304;4.870;2023-02-10T06:53:03;103806.78;;;15.73;nan
69245;BME280;56357;52.304;4.870;2023-02-10T06:55:29;103807.34;;;15.83;nan
69245;BME280;56357;52.304;4.870;2023-02-10T06:57:58;103807.72;;;15.94;nan
69245;BME280;56357;52.304;4.870;2023-02-10T07:00:25;103808.19;;;15.83;nan
69245;BME280;56357;52.304;4.870;2023-02-10T07:02:51;103816.13;;;15.94;nan
69245;BME280;56357;52.304;4.870;2023-02-10T07:05:18;103812.03;;;16.11;nan
69245;BME280;56357;52.304;4.870;2023-02-10T07:07:45;103822.25;;;16.04;nan
69245;BME280;56357;52.304;4.870;2023-02-10T07:10:11;103834.03;;;16.00;nan
69245;BME280;56357;52.304;4.870;2023-02-10T07:12:38;103834.28;;;16.05;nan
69245;BME280;56357;52.304;4.870;2023-02-10T07:15:05;103845.09;;;16.08;nan
69245;BME280;56357;52.304;4.870;2023-02-10T07:17:31;103833.78;;;16.30;nan
69245;BME280;56357;52.304;4.870;2023-02-10T07:19:58;103845.78;;;16.45;nan
69245;BME280;56357;52.304;4.870;2023-02-10T07:22:24;103832.38;;;16.56;nan
69245;BME280;56357;52.304;4.870;2023-02-10T07:24:51;103833.50;;;16.61;nan
69245;BME280;56357;52.304;4.870;2023-02-10T07:27:17;103844.09;;;16.66;nan
69245;BME280;56357;52.304;4.870;2023-02-10T07:29:43;103850.63;;;16.52;nan
69245;BME280;56357;52.304;4.870;2023-02-10T07:32:10;103861.59;;;16.53;nan
69245;BME280;56357;52.304;4.870;2023-02-10T07:34:36;103848.69;;;16.37;nan
69245;BME280;56357;52.304;4.870;2023-02-10T07:37:05;103837.56;;;16.23;nan
69245;BME280;56357;52.304;4.870;2023-02-10T07:39:32;103848.13;;;16.27;nan
69245;BME280;56357;52.304;4.870;2023-02-10T07:41:59;103852.94;;;16.33;nan
69245;BME280;56357;52.304;4.870;2023-02-10T07:44:26;103859.31;;;16.27;nan
69245;BME280;56357;52.304;4.870;2023-02-10T07:46:53;103862.72;;;16.23;nan
69245;BME280;56357;52.304;4.870;2023-02-10T07:49:20;103855.16;;;16.23;nan
69245;BME280;56357;52.304;4.870;2023-02-10T07:51:46;103860.59;;;16.10;nan
69245;BME280;56357;52.304;4.870;2023-02-10T07:54:12;103864.53;;;16.16;nan
69245;BME280;56357;52.304;4.870;2023-02-10T07:56:39;103855.09;;;16.17;nan
69245;BME280;56357;52.304;4.870;2023-02-10T07:59:05;103853.72;;;16.42;nan
69245;BME280;56357;52.304;4.870;2023-02-10T08:01:32;103868.28;;;16.37;nan
69245;BME280;56357;52.304;4.870;2023-02-10T08:04:01;103873.31;;;16.27;nan
69245;BME280;56357;52.304;4.870;2023-02-10T08:06:28;103879.88;;;16.34;nan
69245;BME280;56357;52.304;4.870;2023-02-10T08:08:54;103867.91;;;16.26;nan
69245;BME280;56357;52.304;4.870;2023-02-10T08:11:21;103859.22;;;16.35;nan
69245;BME280;56357;52.304;4.870;2023-02-10T08:13:47;103857.66;;;16.33;nan
69245;BME280;56357;52.304;4.870;2023-02-10T08:16:14;103858.38;;;16.20;nan
69245;BME280;56357;52.304;4.870;2023-02-10T08:18:41;103856.53;;;16.27;nan
69245;BME280;56357;52.304;4.870;2023-02-10T08:21:08;103862.44;;;16.03;nan
69245;BME280;56357;52.304;4.870;2023-02-10T08:23:35;103859.47;;;16.05;nan
69245;BME280;56357;52.304;4.870;2023-02-10T08:26:03;103871.19;;;16.29;nan
69245;BME280;56357;52.304;4.870;2023-02-10T08:28:30;103876.78;;;16.29;nan
69245;BME280;56357;52.304;4.870;2023-02-10T08:31:01;103871.75;;;16.39;nan
69245;BME280;56357;52.304;4.870;2023-02-10T08:33:28;103859.78;;;16.45;nan
69245;BME280;56357;52.304;4.870;2023-02-10T08:35:55;103855.53;;;16.50;nan
69245;BME280;56357;52.304;4.870;2023-02-10T08:38:22;103848.31;;;16.40;nan
69245;BME280;56357;52.304;4.870;2023-02-10T08:40:56;103856.53;;;16.27;nan
69245;BME280;56357;52.304;4.870;2023-02-10T08:43:24;103852.94;;;16.33;nan
69245;BME280;56357;52.304;4.870;2023-02-10T08:45:51;103866.25;;;16.46;nan
69245;BME280;56357;52.304;4.870;2023-02-10T08:48:17;103872.63;;;16.40;nan
69245;BME280;56357;52.304;4.870;2023-02-10T08:50:44;103867.28;;;16.45;nan
69245;BME280;56357;52.304;4.870;2023-02-10T08:53:10;103879.09;;;16.40;nan
69245;BME280;56357;52.304;4.870;2023-02-10T08:55:37;103868.75;;;16.41;nan
69245;BME280;56357;52.304;4.870;2023-02-10T08:58:03;103874.63;;;16.46;nan
69245;BME280;56357;52.304;4.870;2023-02-10T09:00:31;103871.34;;;16.42;nan
69245;BME280;56357;52.304;4.870;2023-02-10T09:02:57;103873.09;;;16.43;nan
69245;BME280;56357;52.304;4.870;2023-02-10T09:05:24;103872.41;;;16.41;nan
69245;BME280;56357;52.304;4.870;2023-02-10T09:07:51;103871.34;;;16.42;nan
69245;BME280;56357;52.304;4.870;2023-02-10T09:10:17;103882.38;;;16.29;nan
69245;BME280;56357;52.304;4.870;2023-02-10T09:12:44;103887.00;;;16.22;nan
69245;BME280;56357;52.304;4.870;2023-02-10T09:15:10;103883.59;;;16.41;nan
69245;BME280;56357;52.304;4.870;2023-02-10T09:17:37;103873.88;;;16.37;nan
69245;BME280;56357;52.304;4.870;2023-02-10T09:20:03;103880.94;;;16.19;nan
69245;BME280;56357;52.304;4.870;2023-02-10T09:22:30;103878.53;;;16.30;nan
69245;BME280;56357;52.304;4.870;2023-02-10T09:24:57;103885.31;;;16.42;nan
69245;BME280;56357;52.304;4.870;2023-02-10T09:27:24;103879.72;;;16.42;nan
69245;BME280;56357;52.304;4.870;2023-02-10T09:29:51;103880.94;;;16.48;nan
69245;BME280;56357;52.304;4.870;2023-02-10T09:32:17;103882.53;;;16.42;nan
69245;BME280;56357;52.304;4.870;2023-02-10T09:34:44;103885.63;;;16.47;nan
69245;BME280;56357;52.304;4.870;2023-02-10T09:37:11;103889.13;;;16.50;nan
69245;BME280;56357;52.304;4.870;2023-02-10T09:39:37;103885.72;;;16.54;nan
69245;BME280;56357;52.304;4.870;2023-02-10T09:42:30;103887.56;;;16.62;nan
69245;BME280;56357;52.304;4.870;2023-02-10T09:45:09;103888.47;;;16.69;nan
69245;BME280;56357;52.304;4.870;2023-02-10T09:53:19;103875.50;;;16.82;nan
69245;BME280;56357;52.304;4.870;2023-02-10T09:55:58;103875.09;;;16.85;nan
69245;BME280;56357;52.304;4.870;2023-02-10T10:01:35;103877.97;;;16.92;nan
69245;BME280;56357;52.304;4.870;2023-02-10T10:04:10;103867.47;;;17.00;nan
69245;BME280;56357;52.304;4.870;2023-02-10T10:06:41;103871.22;;;17.07;nan
69245;BME280;56357;52.304;4.870;2023-02-10T10:11:48;103870.00;;;17.16;nan
69245;BME280;56357;52.304;4.870;2023-02-10T10:14:37;103863.31;;;17.17;nan
69245;BME280;56357;52.304;4.870;2023-02-10T10:20:07;103863.72;;;17.35;nan
69245;BME280;56357;52.304;4.870;2023-02-10T10:25:48;103870.31;;;17.49;nan
69245;BME280;56357;52.304;4.870;2023-02-10T10:29:00;103865.91;;;17.40;nan
69245;BME280;56357;52.304;4.870;2023-02-10T10:31:33;103867.44;;;17.42;nan
69245;BME280;56357;52.304;4.870;2023-02-10T10:36:39;103868.06;;;17.38;nan
69245;BME280;56357;52.304;4.870;2023-02-10T10:39:30;103868.09;;;17.45;nan
69245;BME280;56357;52.304;4.870;2023-02-10T10:42:03;103876.31;;;17.46;nan
69245;BME280;56357;52.304;4.870;2023-02-10T10:44:34;103869.84;;;17.46;nan
69245;BME280;56357;52.304;4.870;2023-02-10T10:47:05;103872.44;;;17.47;nan
69245;BME280;56357;52.304;4.870;2023-02-10T10:49:36;103880.59;;;17.42;nan
69245;BME280;56357;52.304;4.870;2023-02-10T10:52:19;103877.16;;;17.47;nan
69245;BME280;56357;52.304;4.870;2023-02-10T10:54:49;103866.81;;;17.47;nan
69245;BME280;56357;52.304;4.870;2023-02-10T10:57:17;103873.50;;;17.46;nan
69245;BME280;56357;52.304;4.870;2023-02-10T10:59:49;103874.56;;;17.45;nan
69245;BME280;56357;52.304;4.870;2023-02-10T11:02:19;103860.19;;;17.48;nan
69245;BME280;56357;52.304;4.870;2023-02-10T11:05:05;103856.75;;;17.53;nan
69245;BME280;56357;52.304;4.870;2023-02-10T11:07:33;103864.56;;;17.57;nan
69245;BME280;56357;52.304;4.870;2023-02-10T11:10:00;103857.84;;;17.52;nan
69245;BME280;56357;52.304;4.870;2023-02-10T11:12:31;103858.09;;;17.57;nan
69245;BME280;56357;52.304;4.870;2023-02-10T11:14:59;103855.22;;;17.50;nan
69245;BME280;56357;52.304;4.870;2023-02-10T11:17:34;103841.59;;;17.47;nan
69245;BME280;56357;52.304;4.870;2023-02-10T11:20:21;103837.56;;;17.50;nan
69245;BME280;56357;52.304;4.870;2023-02-10T11:27:54;103830.22;;;17.49;nan
69245;BME280;56357;52.304;4.870;2023-02-10T11:30:30;103826.94;;;17.45;nan
69245;BME280;56357;52.304;4.870;2023-02-10T11:32:57;103831.47;;;17.46;nan
69245;BME280;56357;52.304;4.870;2023-02-10T11:35:24;103834.97;;;17.48;nan
69245;BME280;56357;52.304;4.870;2023-02-10T11:37:57;103827.22;;;17.50;nan
69245;BME280;56357;52.304;4.870;2023-02-10T11:40:28;103831.09;;;17.49;nan
69245;BME280;56357;52.304;4.870;2023-02-10T11:42:57;103812.56;;;17.48;nan
69245;BME280;56357;52.304;4.870;2023-02-10T11:45:29;103810.88;;;17.54;nan
69245;BME280;56357;52.304;4.870;2023-02-10T11:48:16;103812.56;;;17.48;nan
69245;BME280;56357;52.304;4.870;2023-02-10T11:50:42;103818.19;;;17.55;nan
69245;BME280;56357;52.304;4.870;2023-02-10T11:53:30;103823.81;;;17.55;nan
69245;BME280;56357;52.304;4.870;2023-02-10T11:56:07;103833.69;;;17.51;nan
69245;BME280;56357;52.304;4.870;2023-02-10T11:58:52;103836.22;;;17.46;nan
69245;BME280;56357;52.304;4.870;2023-02-10T12:06:55;103829.84;;;17.58;nan
69245;BME280;56357;52.304;4.870;2023-02-10T12:12:36;103839.28;;;17.51;nan
69245;BME280;56357;52.304;4.870;2023-02-10T12:23:48;103841.53;;;17.40;nan
69245;BME280;56357;52.304;4.870;2023-02-10T12:26:33;103826.47;;;17.42;nan
69245;BME280;56357;52.304;4.870;2023-02-10T12:37:38;103822.25;;;17.52;nan
69245;BME280;56357;52.304;4.870;2023-02-10T12:43:20;103794.25;;;17.52;nan
69245;BME280;56357;52.304;4.870;2023-02-10T12:45:59;103797.34;;;17.64;nan
69245;BME280;56357;52.304;4.870;2023-02-10T12:48:46;103785.28;;;17.63;nan
69245;BME280;56357;52.304;4.870;2023-02-10T12:54:00;103782.00;;;17.60;nan
69245;BME280;56357;52.304;4.870;2023-02-10T12:56:39;103774.47;;;17.60;nan
69245;BME280;56357;52.304;4.870;2023-02-10T12:59:15;103771.06;;;17.65;nan
69245;BME280;56357;52.304;4.870;2023-02-10T13:01:48;103757.41;;;17.55;nan
69245;BME280;56357;52.304;4.870;2023-02-10T13:04:33;103755.50;;;17.62;nan
69245;BME280;56357;52.304;4.870;2023-02-10T13:07:11;103745.78;;;17.52;nan
69245;BME280;56357;52.304;4.870;2023-02-10T13:09:49;103741.09;;;17.65;nan
69245;BME280;56357;52.304;4.870;2023-02-10T13:12:33;103747.28;;;17.54;nan
69245;BME280;56357;52.304;4.870;2023-02-10T13:15:28;103741.50;;;17.62;nan
69245;BME280;56357;52.304;4.870;2023-02-10T13:17:56;103741.28;;;17.64;nan
69245;BME280;56357;52.304;4.870;2023-02-10T13:28:45;103724.28;;;17.65;nan
69245;BME280;56357;52.304;4.870;2023-02-10T13:32:17;103724.34;;;17.78;nan
69245;BME280;56357;52.304;4.870;2023-02-10T13:34:28;103725.22;;;17.79;nan
69245;BME280;56357;52.304;4.870;2023-02-10T13:39:34;103729.75;;;17.86;nan
69245;BME280;56357;52.304;4.870;2023-02-10T13:42:06;103740.97;;;17.86;nan
69245;BME280;56357;52.304;4.870;2023-02-10T13:44:35;103734.72;;;17.84;nan
69245;BME280;56357;52.304;4.870;2023-02-10T13:49:55;103721.09;;;17.81;nan
69245;BME280;56357;52.304;4.870;2023-02-10T13:52:26;103715.28;;;17.83;nan
69245;BME280;56357;52.304;4.870;2023-02-10T13:54:58;103716.09;;;17.70;nan
69245;BME280;56357;52.304;4.870;2023-02-10T13:57:34;103716.16;;;17.83;nan
69245;BME280;56357;52.304;4.870;2023-02-10T14:00:25;103709.44;;;17.78;nan
69245;BME280;56357;52.304;4.870;2023-02-10T14:03:00;103701.47;;;17.81;nan
69245;BME280;56357;52.304;4.870;2023-02-10T14:05:34;103687.91;;;17.78;nan
69245;BME280;56357;52.304;4.870;2023-02-10T14:08:25;103690.47;;;17.80;nan
69245;BME280;56357;52.304;4.870;2023-02-10T14:11:03;103675.19;;;17.82;nan
69245;BME280;56357;52.304;4.870;2023-02-10T14:13:32;103671.50;;;17.82;nan
69245;BME280;56357;52.304;4.870;2023-02-10T14:16:05;103678.66;;;17.84;nan
69245;BME280;56357;52.304;4.870;2023-02-10T14:18:37;103687.72;;;17.86;nan
69245;BME280;56357;52.304;4.870;2023-02-10T14:23:38;103686.22;;;17.90;nan
69245;BME280;56357;52.304;4.870;2023-02-10T14:26:30;103698.97;;;17.99;nan
69245;BME280;56357;52.304;4.870;2023-02-10T14:28:59;103711.63;;;17.89;nan
69245;BME280;56357;52.304;4.870;2023-02-10T14:31:31;103717.06;;;17.97;nan
69245;BME280;56357;52.304;4.870;2023-02-10T14:34:04;103717.91;;;17.91;nan
69245;BME280;56357;52.304;4.870;2023-02-10T14:36:31;103723.72;;;17.89;nan
69245;BME280;56357;52.304;4.870;2023-02-10T14:38:59;103705.81;;;17.84;nan
69245;BME280;56357;52.304;4.870;2023-02-10T14:41:28;103699.09;;;17.85;nan
69245;BME280;56357;52.304;4.870;2023-02-10T14:43:55;103698.06;;;17.86;nan
69245;BME280;56357;52.304;4.870;2023-02-10T14:46:27;103691.38;;;17.93;nan
69245;BME280;56357;52.304;4.870;2023-02-10T14:49:08;103694.59;;;17.84;nan
69245;BME280;56357;52.304;4.870;2023-02-10T14:51:40;103688.56;;;17.87;nan
69245;BME280;56357;52.304;4.870;2023-02-10T14:54:23;103683.38;;;17.84;nan
69245;BME280;56357;52.304;4.870;2023-02-10T14:57:00;103680.56;;;17.84;nan
69245;BME280;56357;52.304;4.870;2023-02-10T14:59:30;103690.03;;;17.76;nan